Time;durP1;ratioP1;P1;durP2;ratioP2;P2;SDS_P1;SDS_P2;PMS_P1;PMS_P2;Temp;Humidity;BMP_temperature;BMP_pressure;BME280_temperature;BME280_humidity;BME280_pressure;Samples;Min_cycle;Max_cycle;Signal;HPM_P1;HPM_P2
2022/06/23 00:02:29;;;;;;;11.07;5.07;;;14.70;99.90;;;;;;5041338;28;20472;-60
2022/06/23 00:04:59;;;;;;;7.75;5.30;;;14.80;99.90;;;;;;5039705;28;20060;-60
2022/06/23 00:07:29;;;;;;;8.30;5.60;;;14.70;99.90;;;;;;5040388;28;20065;-60
2022/06/23 00:10:00;;;;;;;8.77;5.10;;;14.70;99.90;;;;;;5040591;28;20465;-60
2022/06/23 00:12:32;;;;;;;8.13;5.68;;;14.60;99.90;;;;;;5039551;28;20069;-60
2022/06/23 00:15:06;;;;;;;9.60;5.38;;;14.70;99.90;;;;;;5040726;28;20520;-60
2022/06/23 00:17:59;;;;;;;7.30;4.88;;;14.70;99.90;;;;;;5039222;28;20076;-61
2022/06/23 00:20:44;;;;;;;8.77;5.88;;;14.60;99.90;;;;;;5033904;28;20076;-60
2022/06/23 00:23:41;;;;;;;8.32;5.35;;;14.60;99.90;;;;;;5020461;28;20099;-60
2022/06/23 00:26:22;;;;;;;8.95;5.68;;;14.50;99.90;;;;;;5019392;28;20065;-60
2022/06/23 00:29:02;;;;;;;9.73;5.90;;;14.50;99.90;;;;;;5020350;28;20050;-59
2022/06/23 00:31:32;;;;;;;9.70;5.85;;;14.50;99.90;;;;;;5020650;28;20038;-60
2022/06/23 00:34:00;;;;;;;7.95;5.60;;;14.60;99.90;;;;;;5019296;28;20053;-61
2022/06/23 00:36:35;;;;;;;8.80;5.57;;;14.50;99.90;;;;;;5020832;28;20048;-60
2022/06/23 00:39:06;;;;;;;8.68;5.80;;;14.50;99.90;;;;;;5018713;28;20033;-60
2022/06/23 00:41:35;;;;;;;8.85;6.03;;;14.50;99.90;;;;;;5020310;28;20041;-60
2022/06/23 00:44:07;;;;;;;8.13;5.53;;;14.50;99.90;;;;;;5019805;28;20118;-60
2022/06/23 00:46:50;;;;;;;8.63;6.45;;;14.40;99.90;;;;;;5019207;28;20042;-60
2022/06/23 00:49:42;;;;;;;8.27;5.80;;;14.50;99.90;;;;;;5020666;28;20473;-60
2022/06/23 00:52:28;;;;;;;10.15;5.68;;;14.40;99.90;;;;;;5029848;28;20061;-60
2022/06/23 00:54:58;;;;;;;8.43;5.72;;;14.40;99.90;;;;;;5039385;28;20049;-60
2022/06/23 00:57:33;;;;;;;8.43;5.63;;;14.40;99.90;;;;;;5040028;28;20068;-60
2022/06/23 01:00:22;;;;;;;8.00;5.38;;;14.30;99.90;;;;;;5037192;28;20052;-60
2022/06/23 01:03:07;;;;;;;8.75;5.90;;;14.40;99.90;;;;;;5039978;28;20056;-59
2022/06/23 01:05:40;;;;;;;8.75;5.90;;;14.40;99.90;;;;;;5038269;28;20050;-60
2022/06/23 01:08:28;;;;;;;10.00;6.18;;;14.30;99.90;;;;;;5038192;28;20057;-60
2022/06/23 01:11:12;;;;;;;9.95;6.80;;;14.30;99.90;;;;;;5040223;28;20068;-60
2022/06/23 01:14:03;;;;;;;8.80;6.22;;;14.20;99.90;;;;;;5038777;28;20064;-61
2022/06/23 01:16:47;;;;;;;9.18;6.40;;;14.30;99.90;;;;;;5039020;28;20110;-60
2022/06/23 01:19:36;;;;;;;10.82;6.93;;;14.30;99.90;;;;;;5039707;28;20045;-60
2022/06/23 01:22:06;;;;;;;10.07;6.22;;;14.10;99.90;;;;;;5029129;28;20390;-60
2022/06/23 01:24:56;;;;;;;9.75;6.80;;;14.20;99.90;;;;;;5019436;28;20674;-60
2022/06/23 01:27:52;;;;;;;9.55;6.72;;;14.20;99.90;;;;;;5019130;28;20052;-61
2022/06/23 01:30:21;;;;;;;10.75;7.07;;;14.20;99.90;;;;;;5018313;28;20109;-61
2022/06/23 01:33:02;;;;;;;11.10;7.47;;;14.20;99.90;;;;;;5020004;28;20057;-60
2022/06/23 01:35:33;;;;;;;9.88;7.22;;;14.10;99.90;;;;;;5001643;28;20069;-60
2022/06/23 01:38:10;;;;;;;10.40;7.72;;;14.10;99.90;;;;;;5018461;28;20519;-61
2022/06/23 01:40:45;;;;;;;9.88;7.28;;;14.10;99.90;;;;;;5020094;28;20057;-60
2022/06/23 01:43:20;;;;;;;11.18;7.50;;;14.10;99.90;;;;;;5018270;28;20042;-59
2022/06/23 01:46:01;;;;;;;10.73;7.28;;;14.10;99.90;;;;;;5017855;28;20050;-59
2022/06/23 01:48:51;;;;;;;9.95;6.95;;;14.10;99.90;;;;;;5019485;28;20479;-59
2022/06/23 01:51:38;;;;;;;9.88;7.10;;;14.00;99.90;;;;;;5025454;28;20045;-59
2022/06/23 01:54:22;;;;;;;10.55;7.70;;;14.00;99.90;;;;;;5043434;28;20085;-60
2022/06/23 01:57:02;;;;;;;9.70;7.60;;;13.90;99.90;;;;;;5042948;28;20049;-59
2022/06/23 01:59:27;;;;;;;11.18;7.63;;;13.90;99.90;;;;;;5042298;28;20061;-60
2022/06/23 02:02:05;;;;;;;10.50;7.65;;;13.90;99.90;;;;;;5043163;28;20134;-59
2022/06/23 02:05:03;;;;;;;11.65;8.10;;;14.00;99.90;;;;;;5041936;28;20444;-58
2022/06/23 02:07:40;;;;;;;9.98;7.50;;;14.00;99.90;;;;;;5034088;28;20053;-59
2022/06/23 02:10:21;;;;;;;10.55;7.28;;;14.00;99.90;;;;;;5043199;28;20422;-59
2022/06/23 02:12:59;;;;;;;12.07;7.55;;;13.90;99.90;;;;;;5041754;28;20077;-58
2022/06/23 02:15:31;;;;;;;10.70;7.43;;;13.90;99.90;;;;;;5042753;28;20050;-59
2022/06/23 02:18:01;;;;;;;13.30;8.70;;;13.90;99.90;;;;;;5042334;28;20045;-59
2022/06/23 02:20:40;;;;;;;10.43;7.65;;;13.90;99.90;;;;;;5041022;28;20060;-59
2022/06/23 02:23:20;;;;;;;12.05;8.85;;;13.90;99.90;;;;;;5024739;28;20045;-58
2022/06/23 02:26:03;;;;;;;11.88;8.30;;;13.80;99.90;;;;;;5021734;28;20045;-59
2022/06/23 02:28:40;;;;;;;11.48;8.32;;;13.90;99.90;;;;;;5023043;28;20179;-59
2022/06/23 02:31:12;;;;;;;12.80;9.15;;;13.90;99.90;;;;;;5022348;28;20076;-58
2022/06/23 02:33:49;;;;;;;12.57;8.55;;;13.90;99.90;;;;;;5021819;28;20048;-60
2022/06/23 02:36:47;;;;;;;12.18;8.68;;;13.90;99.90;;;;;;5022927;28;20497;-59
2022/06/23 02:39:18;;;;;;;12.43;9.50;;;13.80;99.90;;;;;;5021807;28;20034;-57
2022/06/23 02:41:55;;;;;;;13.68;8.77;;;13.80;99.90;;;;;;5022275;28;20049;-58
2022/06/23 02:44:57;;;;;;;13.75;8.95;;;13.80;99.90;;;;;;5022326;28;20044;-60
2022/06/23 02:47:53;;;;;;;12.13;9.27;;;13.90;99.90;;;;;;5021066;28;20046;-60
2022/06/23 02:50:43;;;;;;;12.95;9.13;;;13.80;99.90;;;;;;5022112;28;20050;-59
2022/06/23 02:53:19;;;;;;;12.95;8.88;;;13.80;99.90;;;;;;5022606;28;20081;-59
2022/06/23 02:55:58;;;;;;;12.48;9.23;;;13.80;99.90;;;;;;5021321;28;20034;-59
2022/06/23 02:58:44;;;;;;;15.15;9.07;;;13.70;99.90;;;;;;5022569;28;20050;-59
2022/06/23 03:01:27;;;;;;;14.93;10.43;;;13.70;99.90;;;;;;5021742;28;20054;-59
2022/06/23 03:04:01;;;;;;;13.57;9.02;;;13.70;99.90;;;;;;5020472;28;20465;-60
2022/06/23 03:06:44;;;;;;;13.07;9.25;;;13.70;99.90;;;;;;5022098;28;20062;-60
2022/06/23 03:09:22;;;;;;;15.23;9.27;;;13.70;99.90;;;;;;5021012;28;20050;-59
2022/06/23 03:12:06;;;;;;;14.02;8.43;;;13.60;99.90;;;;;;5021643;28;20070;-59
2022/06/23 03:14:58;;;;;;;12.35;8.68;;;13.60;99.90;;;;;;5020475;28;20101;-59
2022/06/23 03:17:36;;;;;;;13.48;8.68;;;13.60;99.90;;;;;;5019457;28;20045;-59
2022/06/23 03:20:44;;;;;;;13.07;8.93;;;13.60;99.90;;;;;;5021720;28;20293;-60
2022/06/23 03:23:33;;;;;;;12.18;8.68;;;13.60;99.90;;;;;;5040508;28;20052;-60
2022/06/23 03:26:01;;;;;;;13.95;9.35;;;13.60;99.90;;;;;;5040433;28;20101;-60
2022/06/23 03:28:40;;;;;;;14.80;9.50;;;13.60;99.90;;;;;;5041555;28;20049;-60
2022/06/23 03:31:28;;;;;;;13.38;8.73;;;13.70;99.90;;;;;;5040970;28;20045;-59
2022/06/23 03:34:12;;;;;;;13.10;8.90;;;13.60;99.90;;;;;;5040253;28;20038;-60
2022/06/23 03:36:51;;;;;;;14.70;9.38;;;13.70;99.90;;;;;;5041680;28;20397;-60
2022/06/23 03:42:21;;;;;;;12.90;9.40;;;13.70;99.90;;;;;;5040421;28;20111;-59
2022/06/23 03:45:12;;;;;;;13.30;9.43;;;13.70;99.90;;;;;;5041264;28;20061;-58
2022/06/23 03:48:05;;;;;;;13.80;9.63;;;13.80;99.90;;;;;;5038635;28;20098;-59
2022/06/23 03:50:36;;;;;;;;;;;13.70;99.90;;;;;;5039840;28;20049;-59
2022/06/23 03:53:11;;;;;;;15.45;10.40;;;13.70;99.90;;;;;;5041027;28;19936;-60
2022/06/23 03:55:44;;;;;;;15.68;9.98;;;13.70;99.90;;;;;;5039857;28;20038;-59
2022/06/23 03:58:16;;;;;;;14.93;9.63;;;13.80;99.90;;;;;;5041098;28;20105;-60
2022/06/23 04:00:54;;;;;;;12.85;9.18;;;13.70;99.90;;;;;;5040095;28;20073;-59
2022/06/23 04:03:23;;;;;;;14.18;8.90;;;13.70;99.90;;;;;;5040266;28;20114;-59
2022/06/23 04:05:55;;;;;;;13.77;9.95;;;13.80;99.90;;;;;;5040731;28;20034;-59
2022/06/23 04:08:30;;;;;;;13.07;9.15;;;13.80;99.90;;;;;;5039309;28;20053;-60
2022/06/23 04:11:43;;;;;;;14.40;9.75;;;13.80;99.90;;;;;;5041007;28;20476;-60
2022/06/23 04:13:48;;;;;;;14.15;9.20;;;13.80;99.90;;;;;;5039235;28;20045;-59
2022/06/23 04:16:14;;;;;;;14.18;9.32;;;13.90;99.90;;;;;;5039587;28;20050;-59
2022/06/23 04:18:44;;;;;;;13.80;8.30;;;13.90;99.90;;;;;;5040685;28;20045;-60
2022/06/23 04:21:18;;;;;;;12.20;8.90;;;13.90;99.90;;;;;;5036779;28;20038;-60
2022/06/23 04:23:49;;;;;;;14.82;9.60;;;14.00;99.90;;;;;;5020930;28;20053;-60
2022/06/23 04:26:25;;;;;;;14.23;8.95;;;14.00;99.90;;;;;;5019650;28;20042;-59
2022/06/23 04:29:01;;;;;;;13.98;9.55;;;14.00;99.90;;;;;;5020021;28;20050;-59
2022/06/23 04:31:30;;;;;;;13.60;9.10;;;14.10;99.90;;;;;;5020394;28;20060;-59
2022/06/23 04:33:57;;;;;;;14.40;9.43;;;14.20;99.90;;;;;;5019256;28;20052;-59
2022/06/23 04:36:26;;;;;;;13.82;9.40;;;14.20;99.90;;;;;;5020733;28;20418;-59
2022/06/23 04:39:06;;;;;;;14.75;9.20;;;14.30;99.90;;;;;;5019133;28;20037;-59
2022/06/23 04:41:45;;;;;;;13.57;9.05;;;14.40;99.90;;;;;;5020287;28;20050;-59
2022/06/23 04:44:20;;;;;;;14.30;9.07;;;14.40;99.90;;;;;;5020082;28;20057;-59
2022/06/23 04:46:55;;;;;;;15.27;9.88;;;14.50;99.90;;;;;;5019186;28;20538;-59
2022/06/23 04:49:39;;;;;;;13.90;9.27;;;14.60;99.90;;;;;;5020650;28;20050;-59
2022/06/23 04:52:20;;;;;;;13.82;9.38;;;14.70;99.90;;;;;;5030872;28;20052;-59
2022/06/23 04:54:49;;;;;;;14.98;9.77;;;14.80;99.90;;;;;;5039363;28;20049;-59
2022/06/23 04:57:45;;;;;;;14.55;9.75;;;14.80;99.90;;;;;;5040028;28;20042;-59
2022/06/23 05:00:26;;;;;;;14.10;8.80;;;14.90;99.90;;;;;;5035344;28;20092;-59
2022/06/23 05:02:57;;;;;;;14.63;8.95;;;15.00;99.90;;;;;;5039634;28;20049;-60
2022/06/23 05:05:28;;;;;;;13.88;9.57;;;15.10;99.90;;;;;;5039377;28;20509;-59
2022/06/23 05:08:16;;;;;;;16.73;9.80;;;15.20;99.90;;;;;;5038343;28;20509;-59
2022/06/23 05:10:54;;;;;;;15.23;10.23;;;15.40;99.90;;;;;;5040032;28;20072;-60
2022/06/23 05:13:27;;;;;;;13.52;9.85;;;15.30;99.90;;;;;;5038628;28;20120;-60
2022/06/23 05:16:05;;;;;;;13.90;9.57;;;15.40;99.90;;;;;;5038974;28;20049;-59
2022/06/23 05:18:38;;;;;;;15.10;9.93;;;15.60;99.90;;;;;;5039512;28;20061;-59
2022/06/23 05:21:12;;;;;;;14.00;9.48;;;15.60;99.90;;;;;;5036720;28;20041;-60
2022/06/23 05:23:53;;;;;;;14.40;10.75;;;15.70;99.90;;;;;;5019586;28;20056;-59
2022/06/23 05:26:39;;;;;;;14.45;10.55;;;15.80;99.90;;;;;;5018489;28;20094;-60
2022/06/23 05:29:12;;;;;;;13.50;9.40;;;15.90;99.90;;;;;;5018665;28;20034;-59
2022/06/23 05:31:39;;;;;;;12.65;9.85;;;16.00;99.90;;;;;;5018269;28;20050;-59
2022/06/23 05:34:12;;;;;;;16.45;10.00;;;16.10;99.90;;;;;;5018441;28;20080;-60
2022/06/23 05:37:16;;;;;;;15.57;9.25;;;16.20;99.90;;;;;;5019946;28;20129;-59
2022/06/23 05:39:54;;;;;;;14.73;8.93;;;16.20;99.90;;;;;;5019399;28;20050;-59
2022/06/23 05:42:29;;;;;;;14.52;9.27;;;16.30;99.90;;;;;;5018426;28;20505;-60
2022/06/23 05:45:00;;;;;;;12.82;9.35;;;16.30;99.90;;;;;;5019615;28;20060;-60
2022/06/23 05:47:29;;;;;;;14.52;9.65;;;16.40;99.90;;;;;;5018122;28;20153;-60
2022/06/23 05:50:00;;;;;;;14.50;9.55;;;16.50;99.90;;;;;;5019445;28;20096;-60
2022/06/23 05:52:40;;;;;;;14.98;8.88;;;16.50;99.90;;;;;;5033509;28;20049;-60
2022/06/23 05:55:16;;;;;;;15.93;9.70;;;16.60;99.90;;;;;;5038180;28;20052;-60
2022/06/23 05:57:55;;;;;;;15.43;9.43;;;16.70;99.90;;;;;;5039468;28;20049;-59
2022/06/23 06:00:52;;;;;;;13.55;9.52;;;16.80;99.90;;;;;;5037848;28;20056;-59
2022/06/23 06:03:42;;;;;;;16.20;9.60;;;17.00;99.90;;;;;;5035023;28;20057;-59
2022/06/23 06:06:08;;;;;;;12.15;9.20;;;17.00;99.90;;;;;;5035437;28;20060;-58
2022/06/23 06:11:34;;;;;;;12.88;9.65;;;17.20;99.90;;;;;;5035772;28;20060;-59
2022/06/23 06:14:02;;;;;;;13.20;10.23;;;17.30;99.90;;;;;;5035238;28;20033;-59
2022/06/23 06:16:28;;;;;;;15.50;10.30;;;17.40;99.90;;;;;;5034324;28;20072;-59
2022/06/23 06:18:54;;;;;;;12.73;9.10;;;17.50;99.90;;;;;;5035900;28;20060;-59
2022/06/23 06:21:23;;;;;;;13.43;9.45;;;17.60;99.90;;;;;;5030463;28;20061;-59
2022/06/23 06:24:03;;;;;;;12.90;9.57;;;17.60;99.90;;;;;;5015880;28;20046;-60
2022/06/23 06:26:34;;;;;;;13.95;10.05;;;17.70;99.90;;;;;;5014765;28;20102;-59
2022/06/23 06:29:26;;;;;;;12.55;9.60;;;17.80;99.90;;;;;;5015454;28;20049;-60
2022/06/23 06:32:10;;;;;;;;;;;17.90;99.90;;;;;;5016876;28;20140;-60
2022/06/23 06:35:13;;;;;;;12.90;9.98;;;18.00;99.90;;;;;;5014499;28;20409;-59
2022/06/23 06:37:43;;;;;;;17.45;10.43;;;18.10;99.90;;;;;;5003464;28;20067;-60
2022/06/23 06:40:09;;;;;;;13.35;9.60;;;18.10;99.90;;;;;;5019358;28;20177;-60
2022/06/23 06:42:42;;;;;;;15.27;10.55;;;18.30;99.90;;;;;;5017828;28;20049;-59
2022/06/23 06:45:11;;;;;;;15.65;11.93;;;18.40;99.90;;;;;;5019039;28;20061;-58
2022/06/23 06:47:38;;;;;;;16.75;10.98;;;18.50;99.90;;;;;;5018303;28;20044;-59
2022/06/23 06:50:18;;;;;;;16.60;10.23;;;18.60;99.90;;;;;;5018858;28;20038;-59
2022/06/23 06:52:49;;;;;;;13.38;9.80;;;18.70;99.90;;;;;;5036326;28;20055;-60
2022/06/23 06:55:43;;;;;;;13.88;9.73;;;18.80;99.90;;;;;;5037814;28;20113;-61
2022/06/23 06:58:18;;;;;;;14.38;10.95;;;18.90;99.90;;;;;;5036993;28;20061;-60
2022/06/23 07:01:05;;;;;;;15.45;10.27;;;19.00;99.90;;;;;;5037865;28;20047;-60
2022/06/23 07:03:34;;;;;;;14.85;9.98;;;18.90;99.90;;;;;;5037199;28;20045;-61
2022/06/23 07:06:29;;;;;;;13.77;9.25;;;19.00;99.90;;;;;;5038979;28;20041;-60
2022/06/23 07:08:57;;;;;;;14.07;10.48;;;19.00;99.90;;;;;;5037389;28;20579;-61
2022/06/23 07:11:32;;;;;;;15.23;9.88;;;19.20;99.90;;;;;;5037090;28;20053;-60
2022/06/23 07:14:07;;;;;;;11.70;8.60;;;19.20;99.90;;;;;;5037838;28;20059;-60
2022/06/23 07:17:02;;;;;;;14.20;9.70;;;19.30;99.90;;;;;;5036918;28;20037;-60
2022/06/23 07:19:50;;;;;;;13.55;10.13;;;19.40;99.90;;;;;;5025400;28;20169;-60
2022/06/23 07:22:26;;;;;;;14.27;9.40;;;19.50;99.90;;;;;;5026448;28;20050;-60
2022/06/23 07:25:03;;;;;;;13.65;9.68;;;19.50;99.90;;;;;;5017610;28;20056;-60
2022/06/23 07:27:55;;;;;;;12.60;9.00;;;19.60;99.90;;;;;;5017711;28;20058;-59
2022/06/23 07:30:33;;;;;;;;;;;19.80;99.90;;;;;;5016713;28;20042;-60
2022/06/23 07:33:04;;;;;;;13.23;8.10;;;20.00;99.90;;;;;;5018016;28;19936;-60
2022/06/23 07:35:41;;;;;;;11.73;8.40;;;20.10;99.90;;;;;;5017958;28;20042;-60
2022/06/23 07:38:25;;;;;;;11.70;7.72;;;20.20;99.90;;;;;;5016695;28;20597;-60
2022/06/23 07:41:22;;;;;;;11.23;7.28;;;20.20;99.90;;;;;;5018148;28;20074;-60
2022/06/23 07:44:00;;;;;;;10.57;6.88;;;20.40;99.90;;;;;;5017441;28;20593;-60
2022/06/23 07:46:26;;;;;;;10.25;6.60;;;20.60;99.90;;;;;;5018307;28;20069;-60
2022/06/23 07:48:52;;;;;;;11.90;7.20;;;20.70;99.90;;;;;;5021108;28;20061;-60
2022/06/23 07:51:18;;;;;;;10.60;7.00;;;20.80;99.90;;;;;;5025089;28;20036;-61
2022/06/23 07:53:47;;;;;;;13.25;7.63;;;20.90;99.90;;;;;;5040071;28;20064;-60
2022/06/23 07:56:18;;;;;;;11.57;8.02;;;20.90;99.90;;;;;;5039675;28;20100;-60
2022/06/23 07:58:48;;;;;;;11.02;7.50;;;20.90;99.90;;;;;;5040138;28;20050;-61
2022/06/23 08:01:37;;;;;;;10.20;6.80;;;21.00;99.90;;;;;;5039937;28;20045;-61
2022/06/23 08:04:27;;;;;;;11.18;7.60;;;21.10;99.90;;;;;;5039494;28;20081;-60
2022/06/23 08:06:57;;;;;;;13.35;7.40;;;21.10;99.90;;;;;;5040311;28;20046;-60
2022/06/23 08:09:28;;;;;;;11.48;7.28;;;21.20;99.90;;;;;;5039837;28;20481;-60
2022/06/23 08:16:49;;;;;;;10.95;6.78;;;21.20;99.90;;;;;;5040365;28;20104;-61
2022/06/23 08:17:40;;;;;;;12.73;7.47;;;21.40;99.90;;;;;;5039446;28;20053;-60
2022/06/23 08:20:10;;;;;;;13.00;7.63;;;21.50;99.90;;;;;;5038214;28;20053;-60
2022/06/23 08:22:39;;;;;;;12.45;7.40;;;21.50;99.90;;;;;;5025994;28;20092;-60
2022/06/23 08:25:06;;;;;;;11.63;7.03;;;21.70;99.90;;;;;;5019331;28;20060;-60
2022/06/23 08:27:33;;;;;;;14.45;7.55;;;21.80;99.90;;;;;;5020507;28;20050;-60
2022/06/23 08:30:07;;;;;;;13.13;8.18;;;21.80;99.90;;;;;;5019391;28;20045;-61
2022/06/23 08:32:37;;;;;;;10.70;6.90;;;21.90;99.90;;;;;;5020549;28;20038;-60
2022/06/23 08:35:05;;;;;;;10.57;6.25;;;21.90;99.90;;;;;;5019898;28;20093;-60
2022/06/23 08:37:53;;;;;;;9.60;6.35;;;22.00;99.90;;;;;;5019980;28;20058;-59
2022/06/23 08:40:57;;;;;;;10.23;6.50;;;22.10;99.90;;;;;;5020700;28;20054;-59
2022/06/23 08:43:42;;;;;;;10.68;6.78;;;22.10;99.90;;;;;;5026061;28;20109;-60
2022/06/23 08:46:18;;;;;;;11.25;6.65;;;22.20;99.90;;;;;;5029088;28;20037;-59
2022/06/23 08:48:53;;;;;;;15.55;7.57;;;22.30;99.90;;;;;;5032919;28;20045;-59
2022/06/23 08:51:28;;;;;;;11.32;7.28;;;22.40;99.90;;;;;;5038123;28;20604;-60
2022/06/23 08:54:26;;;;;;;11.57;6.55;;;22.50;99.90;;;;;;5038044;28;20045;-58
2022/06/23 08:57:33;;;;;;;11.10;6.50;;;22.60;99.90;;;;;;5038937;28;20041;-60
2022/06/23 09:00:07;;;;;;;10.25;7.28;;;22.60;99.90;;;;;;5037476;28;20588;-59
2022/06/23 09:03:05;;;;;;;11.70;7.78;;;22.70;99.90;;;;;;5039613;28;20049;-59
2022/06/23 09:05:42;;;;;;;13.25;6.78;;;22.70;99.90;;;;;;5016387;28;20057;-59
2022/06/23 09:08:27;;;;;;;11.27;7.15;;;22.90;99.90;;;;;;5036198;28;20061;-59
2022/06/23 09:11:11;;;;;;;11.25;6.88;;;22.90;99.90;;;;;;5038953;28;20037;-59
2022/06/23 09:14:08;;;;;;;10.15;6.57;;;23.00;99.90;;;;;;5037961;28;20045;-60
2022/06/23 09:16:38;;;;;;;10.68;5.95;;;23.10;99.90;;;;;;5037721;28;20490;-60
2022/06/23 09:19:36;;;;;;;12.75;6.57;;;23.30;99.90;;;;;;5039276;28;20151;-60
2022/06/23 09:22:45;;;;;;;11.10;6.30;;;23.50;99.90;;;;;;5007587;28;20056;-60
2022/06/23 09:25:36;;;;;;;9.60;6.32;;;23.50;99.90;;;;;;5017554;28;20049;-60
2022/06/23 09:28:16;;;;;;;8.70;4.87;;;23.60;99.90;;;;;;5019932;28;20053;-56
2022/06/23 09:30:57;;;;;;;8.80;5.90;;;23.80;99.90;;;;;;5018781;28;20052;-60
2022/06/23 09:33:40;;;;;;;12.05;5.95;;;23.90;99.90;;;;;;5018749;28;20053;-60
2022/06/23 09:36:21;;;;;;;8.32;5.13;;;23.90;99.90;;;;;;5019599;28;20395;-60
2022/06/23 09:39:25;;;;;;;8.90;4.97;;;23.90;99.90;;;;;;5018397;28;20045;-60
2022/06/23 09:41:56;;;;;;;8.98;4.55;;;24.20;99.90;;;;;;4996487;28;20050;-61
2022/06/23 09:44:43;;;;;;;11.40;5.22;;;24.30;99.90;;;;;;5015583;28;20085;-60
2022/06/23 09:47:32;;;;;;;7.82;4.78;;;24.30;99.90;;;;;;5017456;28;20085;-60
2022/06/23 09:50:07;;;;;;;7.47;4.50;;;24.30;99.90;;;;;;5018500;28;20042;-60
2022/06/23 09:52:57;;;;;;;10.32;5.00;;;24.50;99.90;;;;;;5034570;28;20037;-59
2022/06/23 09:55:54;;;;;;;8.38;5.00;;;24.60;99.90;;;;;;5037676;28;20049;-60
2022/06/23 09:58:25;;;;;;;7.88;4.50;;;24.50;99.90;;;;;;5036147;28;20052;-60
2022/06/23 10:01:06;;;;;;;6.85;3.97;;;24.70;99.90;;;;;;5035235;28;20061;-59
2022/06/23 10:03:52;;;;;;;7.43;4.03;;;24.70;99.90;;;;;;5031229;28;20052;-60
2022/06/23 10:06:42;;;;;;;8.43;4.85;;;24.80;99.90;;;;;;5018269;28;20061;-59
2022/06/23 10:09:26;;;;;;;8.88;4.00;;;24.80;99.90;;;;;;5018474;28;20465;-60
2022/06/23 10:12:17;;;;;;;9.68;3.40;;;25.00;99.90;;;;;;5018538;28;20080;-57
2022/06/23 10:15:11;;;;;;;7.85;3.83;;;25.20;99.90;;;;;;5023264;28;20050;-60
2022/06/23 10:17:45;;;;;;;6.38;3.17;;;25.40;99.90;;;;;;5022394;28;20038;-59
2022/06/23 10:20:23;;;;;;;6.95;4.03;;;25.40;99.90;;;;;;5022534;28;20044;-60
2022/06/23 10:23:04;;;;;;;8.77;3.65;;;25.50;99.90;;;;;;5038825;28;20419;-60
2022/06/23 10:25:35;;;;;;;7.97;3.10;;;25.50;99.90;;;;;;5041476;28;20432;-60
2022/06/23 10:28:16;;;;;;;6.47;3.03;;;25.60;99.90;;;;;;5042951;28;20109;-60
2022/06/23 10:31:04;;;;;;;9.50;2.83;;;25.70;99.90;;;;;;5042004;28;20049;-60
2022/06/23 10:33:37;;;;;;;6.63;2.80;;;25.90;99.90;;;;;;5041552;28;20045;-60
2022/06/23 10:36:20;;;;;;;5.97;2.80;;;25.90;99.90;;;;;;5042862;28;20042;-60
2022/06/23 10:39:02;;;;;;;8.23;2.95;;;26.00;99.90;;;;;;5041249;28;20056;-60
2022/06/23 10:41:28;;;;;;;7.75;2.90;;;26.00;99.90;;;;;;5041923;28;20045;-59
2022/06/23 10:44:08;;;;;;;7.63;2.78;;;26.00;99.90;;;;;;5041985;28;20048;-59
2022/06/23 10:46:49;;;;;;;7.88;2.80;;;26.10;99.90;;;;;;5041250;28;20046;-59
2022/06/23 10:49:33;;;;;;;5.43;2.58;;;26.20;99.90;;;;;;5042521;28;20489;-59
2022/06/23 10:52:11;;;;;;;6.32;2.70;;;26.40;99.90;;;;;;5041175;28;20072;-60
2022/06/23 10:54:42;;;;;;;7.07;3.47;;;26.40;99.90;;;;;;5041480;28;20233;-59
2022/06/23 10:57:33;;;;;;;6.90;3.00;;;26.40;99.90;;;;;;5042208;28;20095;-59
2022/06/23 11:00:16;;;;;;;6.80;2.73;;;26.60;99.90;;;;;;5040898;28;20045;-61
2022/06/23 11:03:09;;;;;;;23.20;2.95;;;26.70;99.90;;;;;;5040483;28;20316;-60
2022/06/23 11:06:06;;;;;;;6.70;3.25;;;26.80;99.90;;;;;;5042033;28;20484;-59
2022/06/23 11:08:47;;;;;;;6.82;3.05;;;26.90;99.90;;;;;;5040484;28;20053;-59
2022/06/23 11:11:40;;;;;;;8.02;2.50;;;27.10;99.90;;;;;;5041631;28;20057;-59
2022/06/23 11:14:46;;;;;;;5.30;2.42;;;27.20;99.90;;;;;;5041387;28;20045;-59
2022/06/23 11:17:27;;;;;;;6.22;2.58;;;27.30;99.90;;;;;;5040352;28;20069;-59
2022/06/23 11:20:21;;;;;;;5.97;2.47;;;27.20;99.90;;;;;;5041507;28;20037;-59
2022/06/23 11:22:56;;;;;;;7.07;2.55;;;27.40;99.90;;;;;;5025870;28;20041;-59
2022/06/23 11:25:48;;;;;;;6.72;2.92;;;27.40;99.80;;;;;;5019944;28;20080;-59
2022/06/23 11:28:17;;;;;;;7.10;2.75;;;27.30;99.90;;;;;;5021822;28;20046;-60
2022/06/23 11:30:52;;;;;;;10.65;2.88;;;27.50;99.90;;;;;;5021120;28;20437;-60
2022/06/23 11:33:31;;;;;;;6.32;2.50;;;27.60;99.90;;;;;;5020892;28;20045;-60
2022/06/23 11:36:26;;;;;;;6.10;2.35;;;27.70;99.60;;;;;;5021842;28;20053;-60
2022/06/23 11:39:01;;;;;;;7.43;3.00;;;27.70;99.60;;;;;;5020706;28;20108;-60
2022/06/23 11:41:45;;;;;;;6.60;2.60;;;27.80;99.90;;;;;;5021089;28;20054;-60
2022/06/23 11:44:34;;;;;;;8.18;2.60;;;27.90;99.90;;;;;;5021104;28;20053;-60
2022/06/23 11:47:06;;;;;;;6.80;3.05;;;27.80;99.90;;;;;;5018532;28;20042;-60
2022/06/23 11:49:52;;;;;;;5.65;2.80;;;27.80;99.80;;;;;;5021467;28;20054;-59
2022/06/23 11:52:21;;;;;;;6.97;2.70;;;27.80;99.40;;;;;;5034021;28;20059;-59
2022/06/23 11:55:27;;;;;;;7.75;2.63;;;28.00;99.90;;;;;;5040204;28;20160;-60
2022/06/23 11:58:13;;;;;;;6.97;3.20;;;28.10;99.90;;;;;;5041328;28;20050;-60
2022/06/23 12:01:05;;;;;;;5.60;2.67;;;28.10;99.90;;;;;;5040131;28;20077;-60
2022/06/23 12:03:49;;;;;;;6.65;2.97;;;28.20;99.90;;;;;;5038589;28;20037;-61
2022/06/23 12:06:52;;;;;;;6.03;3.10;;;28.20;99.90;;;;;;5041196;28;20049;-60
2022/06/23 12:09:48;;;;;;;7.38;2.88;;;28.20;99.90;;;;;;5039941;28;20080;-60
2022/06/23 12:12:13;;;;;;;7.43;3.30;;;28.30;99.90;;;;;;5039323;28;20076;-61
2022/06/23 12:14:40;;;;;;;6.53;2.83;;;28.40;99.90;;;;;;5040988;28;20045;-60
2022/06/23 12:17:26;;;;;;;9.13;3.08;;;28.50;99.90;;;;;;5039487;28;20041;-60
2022/06/23 12:20:19;;;;;;;9.38;2.90;;;28.60;99.90;;;;;;5040379;28;20409;-60
2022/06/23 12:22:51;;;;;;;7.22;2.70;;;28.60;99.90;;;;;;5025066;28;20046;-60
2022/06/23 12:25:38;;;;;;;7.57;2.90;;;28.60;98.40;;;;;;5019550;28;20033;-60
2022/06/23 12:28:22;;;;;;;8.43;2.80;;;28.70;99.50;;;;;;5020741;28;20545;-61
2022/06/23 12:31:17;;;;;;;6.03;2.67;;;28.70;98.10;;;;;;5019953;28;20089;-60
2022/06/23 12:33:44;;;;;;;7.95;2.55;;;28.70;98.20;;;;;;5019404;28;20072;-59
2022/06/23 12:36:15;;;;;;;7.10;2.42;;;28.90;99.20;;;;;;5019734;28;20148;-60
2022/06/23 12:38:50;;;;;;;7.22;2.70;;;28.80;98.10;;;;;;5019320;28;20048;-60
2022/06/23 12:41:42;;;;;;;8.35;3.53;;;28.90;98.30;;;;;;5020179;28;20081;-61
2022/06/23 12:44:58;;;;;;;8.23;2.70;;;28.90;97.90;;;;;;5020339;28;20034;-60
2022/06/23 12:47:44;;;;;;;6.88;2.78;;;29.00;96.60;;;;;;5001623;28;20057;-60
2022/06/23 12:50:20;;;;;;;6.07;2.67;;;29.10;98.00;;;;;;5019308;28;20125;-60
2022/06/23 12:52:59;;;;;;;5.82;2.60;;;29.00;95.70;;;;;;5036054;28;20049;-60
2022/06/23 12:55:39;;;;;;;8.40;3.03;;;29.10;95.70;;;;;;5038850;28;20103;-59
2022/06/23 12:58:23;;;;;;;6.03;2.27;;;29.20;96.00;;;;;;5040150;28;20053;-60
2022/06/23 13:01:13;;;;;;;8.65;2.35;;;29.20;95.80;;;;;;5039526;28;20407;-61
2022/06/23 13:03:52;;;;;;;7.57;2.40;;;29.30;95.40;;;;;;5037260;28;20050;-61
2022/06/23 13:06:21;;;;;;;7.70;2.20;;;29.30;94.70;;;;;;5039839;28;20084;-60
2022/06/23 13:08:58;;;;;;;7.47;2.30;;;29.50;94.80;;;;;;5038726;28;20092;-61
2022/06/23 13:11:40;;;;;;;5.38;2.03;;;29.50;94.50;;;;;;5038041;28;20041;-60
2022/06/23 13:14:39;;;;;;;8.02;2.55;;;29.50;93.70;;;;;;5039432;28;20045;-60
2022/06/23 13:17:32;;;;;;;6.65;2.08;;;29.60;94.00;;;;;;5038051;28;20045;-59
2022/06/23 13:20:30;;;;;;;5.00;1.90;;;29.60;94.20;;;;;;5039202;28;20045;-60
2022/06/23 13:22:59;;;;;;;5.95;2.38;;;29.80;93.90;;;;;;5016921;28;20064;-60
2022/06/23 13:25:33;;;;;;;6.78;2.45;;;29.70;93.40;;;;;;5018251;28;20053;-61
2022/06/23 13:28:03;;;;;;;7.07;2.13;;;29.70;92.70;;;;;;5020092;28;20046;-60
2022/06/23 13:30:39;;;;;;;6.90;2.20;;;29.90;92.50;;;;;;5018789;28;20513;-60
2022/06/23 13:33:36;;;;;;;6.10;2.30;;;29.80;92.00;;;;;;5018891;28;20053;-60
2022/06/23 13:36:13;;;;;;;6.13;2.35;;;29.70;91.20;;;;;;5019691;28;20160;-60
2022/06/23 13:38:52;;;;;;;6.55;2.60;;;29.70;91.70;;;;;;5018363;28;20046;-61
2022/06/23 13:41:35;;;;;;;6.88;2.30;;;29.60;93.20;;;;;;5019489;28;20050;-60
2022/06/23 13:44:31;;;;;;;6.55;2.90;;;29.80;92.00;;;;;;5019533;28;20084;-60
2022/06/23 13:47:07;;;;;;;6.28;2.25;;;29.70;91.90;;;;;;5019707;28;20051;-60
2022/06/23 13:49:43;;;;;;;5.65;2.20;;;29.90;92.60;;;;;;5023807;28;20038;-60
2022/06/23 13:52:33;;;;;;;5.22;2.30;;;29.90;92.20;;;;;;5033776;28;20100;-60
2022/06/23 13:55:08;;;;;;;5.63;2.30;;;29.80;92.00;;;;;;5042229;28;20083;-60
2022/06/23 13:58:05;;;;;;;7.90;2.95;;;29.70;90.80;;;;;;5043544;28;20628;-60